sensor_id;sensor_type;location;lat;lon;timestamp;pressure;altitude;pressure_sealevel;temperature;humidity
14253;BME280;7210;51.502;10.722;2024-02-15T00:00:24;99935.59;;;9.74;100.00
14253;BME280;7210;51.502;10.722;2024-02-15T00:02:52;99934.75;;;9.80;100.00
14253;BME280;7210;51.502;10.722;2024-02-15T00:05:21;99931.88;;;9.82;100.00
14253;BME280;7210;51.502;10.722;2024-02-15T00:07:49;99932.31;;;9.79;100.00
14253;BME280;7210;51.502;10.722;2024-02-15T00:10:16;99937.53;;;9.85;100.00
14253;BME280;7210;51.502;10.722;2024-02-15T00:12:43;99939.53;;;9.90;100.00
14253;BME280;7210;51.502;10.722;2024-02-15T00:15:11;99930.81;;;9.89;100.00
14253;BME280;7210;51.502;10.722;2024-02-15T00:17:38;99935.66;;;9.92;100.00
14253;BME280;7210;51.502;10.722;2024-02-15T00:20:06;99934.59;;;10.00;100.00
14253;BME280;7210;51.502;10.722;2024-02-15T00:22:36;99938.19;;;10.12;100.00
14253;BME280;7210;51.502;10.722;2024-02-15T00:25:09;99931.22;;;10.17;100.00
14253;BME280;7210;51.502;10.722;2024-02-15T00:27:37;99927.91;;;10.28;100.00
14253;BME280;7210;51.502;10.722;2024-02-15T00:30:06;99928.94;;;10.27;100.00
14253;BME280;7210;51.502;10.722;2024-02-15T00:32:33;99931.31;;;10.35;100.00
14253;BME280;7210;51.502;10.722;2024-02-15T00:35:09;99912.94;;;10.40;100.00
14253;BME280;7210;51.502;10.722;2024-02-15T00:37:37;99917.25;;;10.35;100.00
14253;BME280;7210;51.502;10.722;2024-02-15T00:40:06;99905.34;;;10.26;100.00
14253;BME280;7210;51.502;10.722;2024-02-15T00:42:34;99909.22;;;10.23;100.00
14253;BME280;7210;51.502;10.722;2024-02-15T00:45:02;99907.25;;;10.19;100.00
14253;BME280;7210;51.502;10.722;2024-02-15T00:47:29;99912.16;;;10.15;100.00
14253;BME280;7210;51.502;10.722;2024-02-15T00:49:56;99910.75;;;10.13;100.00
14253;BME280;7210;51.502;10.722;2024-02-15T00:52:24;99916.66;;;10.08;100.00
14253;BME280;7210;51.502;10.722;2024-02-15T00:54:52;99912.41;;;10.07;100.00
14253;BME280;7210;51.502;10.722;2024-02-15T00:57:20;99919.13;;;10.03;100.00
14253;BME280;7210;51.502;10.722;2024-02-15T00:59:47;99919.56;;;10.00;100.00
14253;BME280;7210;51.502;10.722;2024-02-15T01:02:14;99915.94;;;9.95;100.00
14253;BME280;7210;51.502;10.722;2024-02-15T01:04:41;99913.94;;;9.90;100.00
14253;BME280;7210;51.502;10.722;2024-02-15T01:07:11;99912.75;;;9.86;100.00
14253;BME280;7210;51.502;10.722;2024-02-15T01:09:45;99911.56;;;9.82;100.00
14253;BME280;7210;51.502;10.722;2024-02-15T01:12:16;99905.06;;;9.78;100.00
14253;BME280;7210;51.502;10.722;2024-02-15T01:14:43;99906.53;;;9.74;100.00
14253;BME280;7210;51.502;10.722;2024-02-15T01:17:10;99914.88;;;9.71;100.00
14253;BME280;7210;51.502;10.722;2024-02-15T01:19:37;99917.94;;;9.68;100.00
14253;BME280;7210;51.502;10.722;2024-02-15T01:22:04;99912.06;;;9.66;100.00
14253;BME280;7210;51.502;10.722;2024-02-15T01:24:32;99912.91;;;9.60;100.00
14253;BME280;7210;51.502;10.722;2024-02-15T01:27:03;99918.63;;;9.57;100.00
14253;BME280;7210;51.502;10.722;2024-02-15T01:29:35;99915.03;;;9.45;100.00
14253;BME280;7210;51.502;10.722;2024-02-15T01:32:03;99917.03;;;9.50;100.00
14253;BME280;7210;51.502;10.722;2024-02-15T01:34:30;99929.22;;;9.51;100.00
14253;BME280;7210;51.502;10.722;2024-02-15T01:36:58;99930.44;;;9.48;100.00
14253;BME280;7210;51.502;10.722;2024-02-15T01:39:25;99896.44;;;9.34;100.00
14253;BME280;7210;51.502;10.722;2024-02-15T01:41:52;99924.31;;;9.61;100.00
14253;BME280;7210;51.502;10.722;2024-02-15T01:44:22;99929.94;;;9.64;100.00
14253;BME280;7210;51.502;10.722;2024-02-15T01:46:51;99906.91;;;9.47;100.00
14253;BME280;7210;51.502;10.722;2024-02-15T01:49:20;99926.31;;;9.65;100.00
14253;BME280;7210;51.502;10.722;2024-02-15T01:51:51;99935.22;;;9.64;100.00
14253;BME280;7210;51.502;10.722;2024-02-15T01:54:20;99931.19;;;9.62;100.00
14253;BME280;7210;51.502;10.722;2024-02-15T01:56:47;99925.31;;;9.60;100.00
14253;BME280;7210;51.502;10.722;2024-02-15T01:59:15;99925.53;;;9.58;100.00
14253;BME280;7210;51.502;10.722;2024-02-15T02:01:44;99923.91;;;9.57;100.00
14253;BME280;7210;51.502;10.722;2024-02-15T02:04:13;99921.69;;;9.54;100.00
14253;BME280;7210;51.502;10.722;2024-02-15T02:06:40;99916.59;;;9.53;100.00
14253;BME280;7210;51.502;10.722;2024-02-15T02:09:11;99925.78;;;9.50;100.00
14253;BME280;7210;51.502;10.722;2024-02-15T02:11:40;99925.97;;;9.49;100.00
14253;BME280;7210;51.502;10.722;2024-02-15T02:14:08;99918.28;;;9.47;100.00
14253;BME280;7210;51.502;10.722;2024-02-15T02:16:35;99931.91;;;9.44;100.00
14253;BME280;7210;51.502;10.722;2024-02-15T02:19:02;99928.44;;;9.44;100.00
14253;BME280;7210;51.502;10.722;2024-02-15T02:21:36;99928.66;;;9.42;100.00
14253;BME280;7210;51.502;10.722;2024-02-15T02:24:13;99921.97;;;9.40;100.00
14253;BME280;7210;51.502;10.722;2024-02-15T02:26:42;99926.41;;;9.46;100.00
14253;BME280;7210;51.502;10.722;2024-02-15T02:29:10;99921.75;;;9.41;100.00
14253;BME280;7210;51.502;10.722;2024-02-15T02:31:37;99922.75;;;9.40;100.00
14253;BME280;7210;51.502;10.722;2024-02-15T02:34:09;99921.16;;;9.39;100.00
14253;BME280;7210;51.502;10.722;2024-02-15T02:36:36;99912.66;;;9.37;100.00
14253;BME280;7210;51.502;10.722;2024-02-15T02:39:09;99917.09;;;9.37;100.00
14253;BME280;7210;51.502;10.722;2024-02-15T02:41:40;99923.19;;;9.37;100.00
14253;BME280;7210;51.502;10.722;2024-02-15T02:44:15;99920.56;;;9.37;100.00
14253;BME280;7210;51.502;10.722;2024-02-15T02:46:42;99924.81;;;9.38;100.00
14253;BME280;7210;51.502;10.722;2024-02-15T02:49:10;99928.28;;;9.39;100.00
14253;BME280;7210;51.502;10.722;2024-02-15T02:51:37;99929.31;;;9.38;100.00
14253;BME280;7210;51.502;10.722;2024-02-15T02:54:09;99934.16;;;9.41;100.00
14253;BME280;7210;51.502;10.722;2024-02-15T02:56:40;99925.25;;;9.35;100.00
14253;BME280;7210;51.502;10.722;2024-02-15T02:59:09;99930.53;;;9.35;100.00
14253;BME280;7210;51.502;10.722;2024-02-15T03:01:36;99923.19;;;9.37;100.00
14253;BME280;7210;51.502;10.722;2024-02-15T03:04:05;99928.91;;;9.34;100.00
14253;BME280;7210;51.502;10.722;2024-02-15T03:06:32;99932.34;;;9.35;100.00
14253;BME280;7210;51.502;10.722;2024-02-15T03:08:59;99932.97;;;9.30;100.00
14253;BME280;7210;51.502;10.722;2024-02-15T03:11:27;99927.09;;;9.28;100.00
14253;BME280;7210;51.502;10.722;2024-02-15T03:13:55;99942.94;;;9.28;100.00
14253;BME280;7210;51.502;10.722;2024-02-15T03:16:25;99931.78;;;9.26;100.00
14253;BME280;7210;51.502;10.722;2024-02-15T03:18:57;99927.31;;;9.27;100.00
14253;BME280;7210;51.502;10.722;2024-02-15T03:21:26;99920.03;;;9.22;100.00
14253;BME280;7210;51.502;10.722;2024-02-15T03:23:53;99928.31;;;9.26;100.00
14253;BME280;7210;51.502;10.722;2024-02-15T03:26:30;99905.25;;;9.15;100.00
14253;BME280;7210;51.502;10.722;2024-02-15T03:29:04;99922.63;;;9.29;100.00
14253;BME280;7210;51.502;10.722;2024-02-15T03:31:39;99923.63;;;9.28;100.00
14253;BME280;7210;51.502;10.722;2024-02-15T03:34:06;99917.56;;;9.27;100.00
14253;BME280;7210;51.502;10.722;2024-02-15T03:36:32;99927.69;;;9.30;100.00
14253;BME280;7210;51.502;10.722;2024-02-15T03:38:59;99924.47;;;9.28;100.00
14253;BME280;7210;51.502;10.722;2024-02-15T03:41:28;99931.56;;;9.28;100.00
14253;BME280;7210;51.502;10.722;2024-02-15T03:43:58;99927.31;;;9.27;100.00
14253;BME280;7210;51.502;10.722;2024-02-15T03:46:27;99935.03;;;9.28;100.00
14253;BME280;7210;51.502;10.722;2024-02-15T03:48:54;99940.28;;;9.28;100.00
14253;BME280;7210;51.502;10.722;2024-02-15T03:51:22;99938.06;;;9.25;100.00
14253;BME280;7210;51.502;10.722;2024-02-15T03:53:50;99935.41;;;9.25;100.00
14253;BME280;7210;51.502;10.722;2024-02-15T03:56:18;99941.47;;;9.39;100.00
14253;BME280;7210;51.502;10.722;2024-02-15T03:58:46;99938.22;;;9.37;100.00
14253;BME280;7210;51.502;10.722;2024-02-15T04:01:21;99941.84;;;9.42;100.00
14253;BME280;7210;51.502;10.722;2024-02-15T04:03:49;99948.75;;;9.37;100.00
14253;BME280;7210;51.502;10.722;2024-02-15T04:06:16;99947.19;;;9.29;100.00
14253;BME280;7210;51.502;10.722;2024-02-15T04:08:43;99948.38;;;9.33;100.00
14253;BME280;7210;51.502;10.722;2024-02-15T04:11:15;99946.75;;;9.32;100.00
14253;BME280;7210;51.502;10.722;2024-02-15T04:13:42;99954.06;;;9.30;100.00
14253;BME280;7210;51.502;10.722;2024-02-15T04:16:09;99945.97;;;9.25;100.00
14253;BME280;7210;51.502;10.722;2024-02-15T04:18:36;99951.00;;;9.33;100.00
14253;BME280;7210;51.502;10.722;2024-02-15T04:21:05;99957.69;;;9.36;100.00
14253;BME280;7210;51.502;10.722;2024-02-15T04:23:33;99954.88;;;9.37;100.00
14253;BME280;7210;51.502;10.722;2024-02-15T04:26:00;99961.75;;;9.38;100.00
14253;BME280;7210;51.502;10.722;2024-02-15T04:28:27;99966.25;;;9.38;100.00
14253;BME280;7210;51.502;10.722;2024-02-15T04:30:57;99960.97;;;9.38;100.00
14253;BME280;7210;51.502;10.722;2024-02-15T04:33:24;99968.22;;;9.49;100.00
14253;BME280;7210;51.502;10.722;2024-02-15T04:35:51;99963.38;;;9.46;100.00
14253;BME280;7210;51.502;10.722;2024-02-15T04:38:19;99972.25;;;9.51;100.00
14253;BME280;7210;51.502;10.722;2024-02-15T04:40:51;99964.53;;;9.50;100.00
14253;BME280;7210;51.502;10.722;2024-02-15T04:43:19;99965.38;;;9.50;100.00
14253;BME280;7210;51.502;10.722;2024-02-15T04:45:46;99960.28;;;9.49;100.00
14253;BME280;7210;51.502;10.722;2024-02-15T04:48:13;99963.75;;;9.49;100.00
14253;BME280;7210;51.502;10.722;2024-02-15T04:50:40;99966.16;;;9.51;100.00
14253;BME280;7210;51.502;10.722;2024-02-15T04:53:08;99965.13;;;9.52;100.00
14253;BME280;7210;51.502;10.722;2024-02-15T04:55:38;99969.19;;;9.54;100.00
14253;BME280;7210;51.502;10.722;2024-02-15T04:58:09;99975.06;;;9.56;100.00
14253;BME280;7210;51.502;10.722;2024-02-15T05:00:39;99975.06;;;9.56;100.00
14253;BME280;7210;51.502;10.722;2024-02-15T05:03:15;99974.66;;;9.53;100.00
14253;BME280;7210;51.502;10.722;2024-02-15T05:05:43;99975.94;;;9.50;100.00
14253;BME280;7210;51.502;10.722;2024-02-15T05:08:10;99982.22;;;9.49;100.00
14253;BME280;7210;51.502;10.722;2024-02-15T05:10:39;99969.03;;;9.49;100.00
14253;BME280;7210;51.502;10.722;2024-02-15T05:13:06;99978.31;;;9.58;100.00
14253;BME280;7210;51.502;10.722;2024-02-15T05:15:39;99982.16;;;9.62;100.00
14253;BME280;7210;51.502;10.722;2024-02-15T05:18:09;99973.84;;;9.59;100.00
14253;BME280;7210;51.502;10.722;2024-02-15T05:20:39;99977.09;;;9.61;100.00
14253;BME280;7210;51.502;10.722;2024-02-15T05:23:06;99974.81;;;9.71;100.00
14253;BME280;7210;51.502;10.722;2024-02-15T05:25:33;99974.97;;;9.76;100.00
14253;BME280;7210;51.502;10.722;2024-02-15T05:28:03;99977.59;;;9.76;100.00
14253;BME280;7210;51.502;10.722;2024-02-15T05:30:39;99981.84;;;9.83;100.00
14253;BME280;7210;51.502;10.722;2024-02-15T05:33:06;99989.50;;;9.91;100.00
14253;BME280;7210;51.502;10.722;2024-02-15T05:35:36;99985.00;;;9.98;100.00
14253;BME280;7210;51.502;10.722;2024-02-15T05:38:05;99979.78;;;9.92;100.00
14253;BME280;7210;51.502;10.722;2024-02-15T05:40:32;100003.06;;;10.01;100.00
14253;BME280;7210;51.502;10.722;2024-02-15T05:43:02;99997.97;;;10.06;100.00
14253;BME280;7210;51.502;10.722;2024-02-15T05:45:30;99981.13;;;10.01;100.00
14253;BME280;7210;51.502;10.722;2024-02-15T05:48:04;99999.16;;;10.10;100.00
14253;BME280;7210;51.502;10.722;2024-02-15T05:50:34;100001.38;;;10.13;100.00
14253;BME280;7210;51.502;10.722;2024-02-15T05:53:02;99993.06;;;10.10;100.00
14253;BME280;7210;51.502;10.722;2024-02-15T05:55:29;99994.25;;;10.14;100.00
14253;BME280;7210;51.502;10.722;2024-02-15T05:57:59;99988.38;;;10.12;100.00
14253;BME280;7210;51.502;10.722;2024-02-15T06:00:28;99997.34;;;10.11;100.00
14253;BME280;7210;51.502;10.722;2024-02-15T06:02:56;99989.22;;;10.12;100.00
14253;BME280;7210;51.502;10.722;2024-02-15T06:05:23;99991.84;;;10.12;100.00
14253;BME280;7210;51.502;10.722;2024-02-15T06:07:57;99991.66;;;10.07;100.00
14253;BME280;7210;51.502;10.722;2024-02-15T06:10:24;99991.06;;;9.99;100.00
14253;BME280;7210;51.502;10.722;2024-02-15T06:12:57;99998.38;;;10.03;100.00
14253;BME280;7210;51.502;10.722;2024-02-15T06:15:25;100008.16;;;10.03;100.00
14253;BME280;7210;51.502;10.722;2024-02-15T06:17:53;100017.50;;;10.05;100.00
14253;BME280;7210;51.502;10.722;2024-02-15T06:20:21;100014.41;;;10.08;100.00
14253;BME280;7210;51.502;10.722;2024-02-15T06:22:50;100010.97;;;10.08;100.00
14253;BME280;7210;51.502;10.722;2024-02-15T06:25:18;100012.22;;;10.05;100.00
14253;BME280;7210;51.502;10.722;2024-02-15T06:27:46;100020.72;;;10.07;100.00
14253;BME280;7210;51.502;10.722;2024-02-15T06:30:15;100013.38;;;10.09;100.00
14253;BME280;7210;51.502;10.722;2024-02-15T06:33:01;100020.66;;;10.20;100.00
14253;BME280;7210;51.502;10.722;2024-02-15T06:35:45;100016.81;;;10.16;100.00
14253;BME280;7210;51.502;10.722;2024-02-15T06:38:30;100023.06;;;10.22;100.00
14253;BME280;7210;51.502;10.722;2024-02-15T06:41:15;100028.78;;;10.19;100.00
14253;BME280;7210;51.502;10.722;2024-02-15T06:43:42;100025.75;;;10.15;100.00
14253;BME280;7210;51.502;10.722;2024-02-15T06:46:21;100028.84;;;10.12;100.00
14253;BME280;7210;51.502;10.722;2024-02-15T06:48:49;100026.41;;;10.11;100.00
14253;BME280;7210;51.502;10.722;2024-02-15T06:51:16;100038.91;;;10.22;100.00
14253;BME280;7210;51.502;10.722;2024-02-15T06:53:44;100048.84;;;10.26;100.00
14253;BME280;7210;51.502;10.722;2024-02-15T06:56:12;100049.66;;;10.27;100.00
14253;BME280;7210;51.502;10.722;2024-02-15T06:58:40;100040.91;;;10.26;100.00
14253;BME280;7210;51.502;10.722;2024-02-15T07:01:07;100049.22;;;10.36;100.00
14253;BME280;7210;51.502;10.722;2024-02-15T07:03:34;100048.13;;;10.44;100.00
14253;BME280;7210;51.502;10.722;2024-02-15T07:06:03;100056.63;;;10.52;100.00
14253;BME280;7210;51.502;10.722;2024-02-15T07:08:31;100061.66;;;10.54;100.00
14253;BME280;7210;51.502;10.722;2024-02-15T07:11:03;100058.22;;;10.53;100.00
14253;BME280;7210;51.502;10.722;2024-02-15T07:13:30;100055.59;;;10.53;100.00
14253;BME280;7210;51.502;10.722;2024-02-15T07:15:57;100052.13;;;10.53;100.00
14253;BME280;7210;51.502;10.722;2024-02-15T07:18:25;100052.56;;;10.50;100.00
14253;BME280;7210;51.502;10.722;2024-02-15T07:20:52;100052.75;;;10.48;100.00
14253;BME280;7210;51.502;10.722;2024-02-15T07:23:20;100052.16;;;10.46;100.00
14253;BME280;7210;51.502;10.722;2024-02-15T07:25:51;100057.03;;;10.49;100.00
14253;BME280;7210;51.502;10.722;2024-02-15T07:28:19;100041.16;;;10.49;100.00
14253;BME280;7210;51.502;10.722;2024-02-15T07:30:47;100042.19;;;10.48;100.00
14253;BME280;7210;51.502;10.722;2024-02-15T07:33:16;100042.81;;;10.50;100.00
14253;BME280;7210;51.502;10.722;2024-02-15T07:35:43;100036.69;;;10.50;100.00
14253;BME280;7210;51.502;10.722;2024-02-15T07:38:12;100033.59;;;10.53;100.00
14253;BME280;7210;51.502;10.722;2024-02-15T07:40:40;100027.16;;;10.49;100.00
14253;BME280;7210;51.502;10.722;2024-02-15T07:43:07;100024.88;;;10.52;100.00
14253;BME280;7210;51.502;10.722;2024-02-15T07:45:34;100028.69;;;10.56;100.00
14253;BME280;7210;51.502;10.722;2024-02-15T07:48:04;100030.50;;;10.62;100.00
14253;BME280;7210;51.502;10.722;2024-02-15T07:50:31;100029.44;;;10.70;100.00
14253;BME280;7210;51.502;10.722;2024-02-15T07:52:59;100047.00;;;10.82;100.00
14253;BME280;7210;51.502;10.722;2024-02-15T07:55:26;100044.47;;;10.94;100.00
14253;BME280;7210;51.502;10.722;2024-02-15T07:57:55;100041.91;;;11.05;100.00
14253;BME280;7210;51.502;10.722;2024-02-15T08:00:24;100046.69;;;11.14;100.00
14253;BME280;7210;51.502;10.722;2024-02-15T08:02:53;100042.97;;;11.22;100.00
14253;BME280;7210;51.502;10.722;2024-02-15T08:05:20;100049.78;;;11.29;100.00
14253;BME280;7210;51.502;10.722;2024-02-15T08:07:47;100045.59;;;11.40;100.00
14253;BME280;7210;51.502;10.722;2024-02-15T08:10:15;100045.97;;;11.43;100.00
14253;BME280;7210;51.502;10.722;2024-02-15T08:12:46;100043.25;;;11.50;100.00
14253;BME280;7210;51.502;10.722;2024-02-15T08:15:19;100034.28;;;11.51;100.00
14253;BME280;7210;51.502;10.722;2024-02-15T08:17:46;100036.47;;;11.54;100.00
14253;BME280;7210;51.502;10.722;2024-02-15T08:20:15;100040.31;;;11.58;100.00
14253;BME280;7210;51.502;10.722;2024-02-15T08:22:47;100036.03;;;11.57;100.00
14253;BME280;7210;51.502;10.722;2024-02-15T08:25:15;100028.47;;;11.42;100.00
14253;BME280;7210;51.502;10.722;2024-02-15T08:27:47;100028.38;;;11.49;100.00
14253;BME280;7210;51.502;10.722;2024-02-15T08:30:16;100027.50;;;11.55;100.00
14253;BME280;7210;51.502;10.722;2024-02-15T08:32:45;100024.84;;;11.55;100.00
14253;BME280;7210;51.502;10.722;2024-02-15T08:35:14;100027.50;;;11.55;100.00
14253;BME280;7210;51.502;10.722;2024-02-15T08:37:41;100019.13;;;11.58;100.00
14253;BME280;7210;51.502;10.722;2024-02-15T08:40:10;100012.50;;;11.49;100.00
14253;BME280;7210;51.502;10.722;2024-02-15T08:42:39;100012.66;;;11.54;100.00
14253;BME280;7210;51.502;10.722;2024-02-15T08:45:08;100020.38;;;11.55;100.00
14253;BME280;7210;51.502;10.722;2024-02-15T08:47:37;100006.78;;;11.52;100.00
14253;BME280;7210;51.502;10.722;2024-02-15T08:50:08;100007.94;;;11.56;100.00
14253;BME280;7210;51.502;10.722;2024-02-15T08:52:36;100006.09;;;11.56;100.00
14253;BME280;7210;51.502;10.722;2024-02-15T08:55:05;99992.03;;;11.56;100.00
14253;BME280;7210;51.502;10.722;2024-02-15T08:57:33;99986.75;;;11.56;100.00
14253;BME280;7210;51.502;10.722;2024-02-15T09:00:02;99975.00;;;11.52;100.00
14253;BME280;7210;51.502;10.722;2024-02-15T09:02:33;99982.22;;;11.63;100.00
14253;BME280;7210;51.502;10.722;2024-02-15T09:05:00;99975.31;;;11.62;100.00
14253;BME280;7210;51.502;10.722;2024-02-15T09:07:29;99974.84;;;11.65;100.00
14253;BME280;7210;51.502;10.722;2024-02-15T09:09:56;99970.72;;;11.69;100.00
14253;BME280;7210;51.502;10.722;2024-02-15T09:12:23;99968.22;;;11.74;100.00
14253;BME280;7210;51.502;10.722;2024-02-15T09:14:50;99973.78;;;11.84;100.00
14253;BME280;7210;51.502;10.722;2024-02-15T09:17:17;99967.59;;;11.90;100.00
14253;BME280;7210;51.502;10.722;2024-02-15T09:19:47;99966.09;;;11.94;100.00
14253;BME280;7210;51.502;10.722;2024-02-15T09:22:15;99970.16;;;12.08;100.00
14253;BME280;7210;51.502;10.722;2024-02-15T09:24:44;99972.94;;;12.13;100.00
14253;BME280;7210;51.502;10.722;2024-02-15T09:27:11;99963.28;;;12.18;100.00
14253;BME280;7210;51.502;10.722;2024-02-15T09:29:38;99950.03;;;12.30;100.00
14253;BME280;7210;51.502;10.722;2024-02-15T09:32:06;99933.88;;;12.31;100.00
14253;BME280;7210;51.502;10.722;2024-02-15T09:34:39;99937.50;;;12.48;100.00
14253;BME280;7210;51.502;10.722;2024-02-15T09:37:06;99931.38;;;12.48;100.00
14253;BME280;7210;51.502;10.722;2024-02-15T09:39:33;99918.09;;;12.48;100.00
14253;BME280;7210;51.502;10.722;2024-02-15T09:42:05;99919.28;;;12.52;100.00
14253;BME280;7210;51.502;10.722;2024-02-15T09:44:32;99921.94;;;12.63;100.00
14253;BME280;7210;51.502;10.722;2024-02-15T09:47:04;99908.75;;;12.68;100.00
14253;BME280;7210;51.502;10.722;2024-02-15T09:49:36;99910.63;;;12.68;100.00
14253;BME280;7210;51.502;10.722;2024-02-15T09:52:06;99902.53;;;12.74;100.00
14253;BME280;7210;51.502;10.722;2024-02-15T09:54:40;99902.88;;;12.78;100.00
14253;BME280;7210;51.502;10.722;2024-02-15T09:57:11;99898.03;;;12.75;100.00
14253;BME280;7210;51.502;10.722;2024-02-15T09:59:38;99887.88;;;12.72;100.00
14253;BME280;7210;51.502;10.722;2024-02-15T10:02:06;99896.63;;;12.84;100.00
14253;BME280;7210;51.502;10.722;2024-02-15T10:04:37;99902.13;;;12.94;100.00
14253;BME280;7210;51.502;10.722;2024-02-15T10:07:05;99888.88;;;12.94;100.00
14253;BME280;7210;51.502;10.722;2024-02-15T10:09:35;99876.19;;;12.96;100.00
14253;BME280;7210;51.502;10.722;2024-02-15T10:12:04;99871.47;;;12.98;100.00
14253;BME280;7210;51.502;10.722;2024-02-15T10:14:34;99879.44;;;12.98;100.00
14253;BME280;7210;51.502;10.722;2024-02-15T10:17:06;99869.06;;;12.96;100.00
14253;BME280;7210;51.502;10.722;2024-02-15T10:19:35;99857.25;;;12.92;100.00
14253;BME280;7210;51.502;10.722;2024-02-15T10:22:07;99854.84;;;12.91;100.00
14253;BME280;7210;51.502;10.722;2024-02-15T10:24:35;99855.22;;;12.94;100.00
14253;BME280;7210;51.502;10.722;2024-02-15T10:27:04;99853.47;;;13.00;100.00
14253;BME280;7210;51.502;10.722;2024-02-15T10:29:34;99843.97;;;13.04;100.00
14253;BME280;7210;51.502;10.722;2024-02-15T10:32:03;99859.63;;;13.17;100.00
14253;BME280;7210;51.502;10.722;2024-02-15T10:34:44;99844.03;;;13.20;100.00
14253;BME280;7210;51.502;10.722;2024-02-15T10:37:13;99837.91;;;13.20;100.00
14253;BME280;7210;51.502;10.722;2024-02-15T10:39:42;99843.88;;;13.27;100.00
14253;BME280;7210;51.502;10.722;2024-02-15T10:42:09;99840.84;;;13.35;100.00
14253;BME280;7210;51.502;10.722;2024-02-15T10:44:39;99833.25;;;13.27;100.00
14253;BME280;7210;51.502;10.722;2024-02-15T10:47:09;99835.47;;;13.30;100.00
14253;BME280;7210;51.502;10.722;2024-02-15T10:49:36;99830.53;;;13.22;100.00
14253;BME280;7210;51.502;10.722;2024-02-15T10:52:05;99822.94;;;13.14;100.00
14253;BME280;7210;51.502;10.722;2024-02-15T10:54:47;99822.47;;;13.17;100.00
14253;BME280;7210;51.502;10.722;2024-02-15T10:57:21;99828.91;;;13.21;100.00
14253;BME280;7210;51.502;10.722;2024-02-15T10:59:55;99825.88;;;13.29;100.00
14253;BME280;7210;51.502;10.722;2024-02-15T11:02:29;99827.50;;;13.30;100.00
14253;BME280;7210;51.502;10.722;2024-02-15T11:05:06;99825.41;;;13.32;100.00
14253;BME280;7210;51.502;10.722;2024-02-15T11:07:36;99824.44;;;13.38;100.00
14253;BME280;7210;51.502;10.722;2024-02-15T11:10:06;99814.94;;;13.42;100.00
14253;BME280;7210;51.502;10.722;2024-02-15T11:12:37;99815.59;;;13.49;100.00
14253;BME280;7210;51.502;10.722;2024-02-15T11:15:07;99822.22;;;13.63;100.00
14253;BME280;7210;51.502;10.722;2024-02-15T11:17:48;99806.38;;;13.68;100.00
14253;BME280;7210;51.502;10.722;2024-02-15T11:20:49;99817.22;;;13.83;100.00
14253;BME280;7210;51.502;10.722;2024-02-15T11:23:27;99814.19;;;13.91;100.00
14253;BME280;7210;51.502;10.722;2024-02-15T11:25:56;99813.03;;;13.87;100.00
14253;BME280;7210;51.502;10.722;2024-02-15T11:28:39;99807.88;;;13.97;100.00
14253;BME280;7210;51.502;10.722;2024-02-15T11:34:43;99823.19;;;14.06;100.00
14253;BME280;7210;51.502;10.722;2024-02-15T11:37:49;99825.59;;;14.24;100.00
14253;BME280;7210;51.502;10.722;2024-02-15T11:40:29;99817.31;;;14.21;100.00
14253;BME280;7210;51.502;10.722;2024-02-15T11:43:52;99815.44;;;14.05;100.00
14253;BME280;7210;51.502;10.722;2024-02-15T11:46:26;99821.66;;;13.94;100.00
14253;BME280;7210;51.502;10.722;2024-02-15T11:48:57;99835.94;;;14.04;100.00
14253;BME280;7210;51.502;10.722;2024-02-15T11:51:31;99842.22;;;13.98;100.00
14253;BME280;7210;51.502;10.722;2024-02-15T11:54:07;99838.56;;;13.88;100.00
14253;BME280;7210;51.502;10.722;2024-02-15T11:56:53;99842.50;;;13.85;100.00
14253;BME280;7210;51.502;10.722;2024-02-15T11:59:43;99853.47;;;13.89;100.00
14253;BME280;7210;51.502;10.722;2024-02-15T12:02:22;99848.16;;;13.89;100.00
14253;BME280;7210;51.502;10.722;2024-02-15T12:05:07;99857.44;;;14.03;100.00
14253;BME280;7210;51.502;10.722;2024-02-15T12:07:53;99863.16;;;14.11;100.00
14253;BME280;7210;51.502;10.722;2024-02-15T12:10:38;99870.59;;;14.26;100.00
14253;BME280;7210;51.502;10.722;2024-02-15T12:13:27;99852.53;;;14.28;100.00
14253;BME280;7210;51.502;10.722;2024-02-15T12:16:15;99856.84;;;14.17;100.00
14253;BME280;7210;51.502;10.722;2024-02-15T12:19:02;99879.19;;;14.33;100.00
14253;BME280;7210;51.502;10.722;2024-02-15T12:21:29;99886.38;;;14.32;100.00
14253;BME280;7210;51.502;10.722;2024-02-15T12:23:56;99888.06;;;14.38;100.00
14253;BME280;7210;51.502;10.722;2024-02-15T12:26:25;99886.69;;;14.36;100.00
14253;BME280;7210;51.502;10.722;2024-02-15T12:28:57;99883.66;;;14.27;100.00
14253;BME280;7210;51.502;10.722;2024-02-15T12:31:25;99885.41;;;14.22;100.00
14253;BME280;7210;51.502;10.722;2024-02-15T12:34:04;99889.59;;;14.18;100.00
14253;BME280;7210;51.502;10.722;2024-02-15T12:36:32;99885.22;;;14.12;100.00
14253;BME280;7210;51.502;10.722;2024-02-15T12:39:04;99891.69;;;14.16;100.00
14253;BME280;7210;51.502;10.722;2024-02-15T12:41:37;99901.19;;;14.12;100.00
14253;BME280;7210;51.502;10.722;2024-02-15T12:44:06;99904.34;;;14.09;100.00
14253;BME280;7210;51.502;10.722;2024-02-15T12:46:34;99913.03;;;14.21;100.00
14253;BME280;7210;51.502;10.722;2024-02-15T12:49:24;99910.69;;;14.08;100.00
14253;BME280;7210;51.502;10.722;2024-02-15T12:52:33;99925.66;;;14.14;100.00
14253;BME280;7210;51.502;10.722;2024-02-15T12:55:14;99924.56;;;14.10;100.00
14253;BME280;7210;51.502;10.722;2024-02-15T12:57:43;99910.13;;;14.06;100.00
14253;BME280;7210;51.502;10.722;2024-02-15T13:00:13;99927.31;;;14.15;100.00
14253;BME280;7210;51.502;10.722;2024-02-15T13:02:44;99909.31;;;14.05;100.00
14253;BME280;7210;51.502;10.722;2024-02-15T13:05:13;99931.25;;;14.12;100.00
14253;BME280;7210;51.502;10.722;2024-02-15T13:07:41;99950.19;;;14.16;100.00
14253;BME280;7210;51.502;10.722;2024-02-15T13:10:09;99941.03;;;14.23;100.00
14253;BME280;7210;51.502;10.722;2024-02-15T13:12:37;99938.13;;;14.25;100.00